sensor_id;sensor_type;location;lat;lon;timestamp;pressure;altitude;pressure_sealevel;temperature;humidity
5954;BME280;3002;42.642;24.812;2023-04-02T00:07:48;95437.19;;;11.92;72.51
5954;BME280;3002;42.642;24.812;2023-04-02T00:15:43;95414.41;;;11.98;70.85
5954;BME280;3002;42.642;24.812;2023-04-02T00:18:15;95434.28;;;12.15;70.59
5954;BME280;3002;42.642;24.812;2023-04-02T00:20:48;95423.53;;;12.15;70.94
5954;BME280;3002;42.642;24.812;2023-04-02T00:23:16;95415.03;;;12.04;70.55
5954;BME280;3002;42.642;24.812;2023-04-02T00:25:43;95424.25;;;12.32;69.46
5954;BME280;3002;42.642;24.812;2023-04-02T00:28:14;95426.88;;;12.50;69.68
5954;BME280;3002;42.642;24.812;2023-04-02T00:30:49;95390.69;;;12.09;69.33
5954;BME280;3002;42.642;24.812;2023-04-02T00:33:17;95382.84;;;11.95;70.33
5954;BME280;3002;42.642;24.812;2023-04-02T00:35:44;95368.38;;;11.70;69.75
5954;BME280;3002;42.642;24.812;2023-04-02T00:38:23;95395.09;;;12.14;68.67
5954;BME280;3002;42.642;24.812;2023-04-02T00:40:50;95335.97;;;11.75;68.26
5954;BME280;3002;42.642;24.812;2023-04-02T00:43:17;95383.28;;;12.06;68.26
5954;BME280;3002;42.642;24.812;2023-04-02T00:45:44;95351.50;;;12.08;67.51
5954;BME280;3002;42.642;24.812;2023-04-02T00:50:58;95382.19;;;12.37;66.54
5954;BME280;3002;42.642;24.812;2023-04-02T00:53:28;95359.72;;;12.03;67.39
5954;BME280;3002;42.642;24.812;2023-04-02T00:55:56;95376.28;;;12.14;67.89
5954;BME280;3002;42.642;24.812;2023-04-02T00:58:31;95368.16;;;12.22;67.14
5954;BME280;3002;42.642;24.812;2023-04-02T01:00:58;95383.00;;;11.90;68.61
5954;BME280;3002;42.642;24.812;2023-04-02T01:03:30;95371.81;;;11.88;69.47
5954;BME280;3002;42.642;24.812;2023-04-02T01:06:13;95361.28;;;12.04;68.44
5954;BME280;3002;42.642;24.812;2023-04-02T01:14:23;95357.25;;;11.80;69.82
5954;BME280;3002;42.642;24.812;2023-04-02T01:17:03;95384.13;;;11.89;70.36
5954;BME280;3002;42.642;24.812;2023-04-02T01:22:24;95378.88;;;12.01;69.96
5954;BME280;3002;42.642;24.812;2023-04-02T01:24:58;95356.97;;;11.73;71.91
5954;BME280;3002;42.642;24.812;2023-04-02T01:27:27;95371.31;;;11.95;70.73
5954;BME280;3002;42.642;24.812;2023-04-02T01:29:56;95373.22;;;11.94;70.61
5954;BME280;3002;42.642;24.812;2023-04-02T01:32:25;95367.44;;;11.58;71.15
5954;BME280;3002;42.642;24.812;2023-04-02T01:34:56;95357.63;;;11.62;70.11
5954;BME280;3002;42.642;24.812;2023-04-02T01:37:40;95379.38;;;11.77;71.68
5954;BME280;3002;42.642;24.812;2023-04-02T01:43:09;95393.06;;;11.20;77.71
5954;BME280;3002;42.642;24.812;2023-04-02T01:45:39;95390.84;;;11.48;76.36
5954;BME280;3002;42.642;24.812;2023-04-02T01:48:11;95368.44;;;11.18;77.96
5954;BME280;3002;42.642;24.812;2023-04-02T01:50:39;95374.78;;;11.22;77.35
5954;BME280;3002;42.642;24.812;2023-04-02T01:53:09;95408.38;;;11.46;77.33
5954;BME280;3002;42.642;24.812;2023-04-02T01:55:46;95401.91;;;11.47;76.97
5954;BME280;3002;42.642;24.812;2023-04-02T01:58:15;95382.31;;;11.38;77.63
5954;BME280;3002;42.642;24.812;2023-04-02T02:00:49;95382.19;;;11.25;78.35
5954;BME280;3002;42.642;24.812;2023-04-02T02:03:17;95397.63;;;11.37;78.40
5954;BME280;3002;42.642;24.812;2023-04-02T02:05:43;95413.41;;;11.56;75.03
5954;BME280;3002;42.642;24.812;2023-04-02T02:11:13;95432.97;;;10.70;83.98
5954;BME280;3002;42.642;24.812;2023-04-02T02:13:45;95432.44;;;10.51;86.84
5954;BME280;3002;42.642;24.812;2023-04-02T02:16:15;95383.84;;;10.26;84.13
5954;BME280;3002;42.642;24.812;2023-04-02T02:18:44;95400.38;;;10.28;85.97
5954;BME280;3002;42.642;24.812;2023-04-02T02:21:13;95410.50;;;10.40;84.73
5954;BME280;3002;42.642;24.812;2023-04-02T02:23:43;95422.09;;;10.84;82.09
5954;BME280;3002;42.642;24.812;2023-04-02T02:26:10;95403.81;;;11.12;80.75
5954;BME280;3002;42.642;24.812;2023-04-02T02:28:39;95436.63;;;11.26;81.79
5954;BME280;3002;42.642;24.812;2023-04-02T02:31:13;95432.88;;;11.10;85.36
5954;BME280;3002;42.642;24.812;2023-04-02T02:33:46;95433.19;;;11.17;84.65
5954;BME280;3002;42.642;24.812;2023-04-02T02:41:43;95387.72;;;10.86;84.86
5954;BME280;3002;42.642;24.812;2023-04-02T02:44:14;95428.66;;;10.52;89.02
5954;BME280;3002;42.642;24.812;2023-04-02T02:46:45;95413.28;;;10.92;87.92
5954;BME280;3002;42.642;24.812;2023-04-02T02:49:21;95442.28;;;10.81;87.86
5954;BME280;3002;42.642;24.812;2023-04-02T02:54:26;95405.72;;;11.11;80.49
5954;BME280;3002;42.642;24.812;2023-04-02T02:57:00;95395.28;;;11.01;81.76
5954;BME280;3002;42.642;24.812;2023-04-02T02:59:27;95392.47;;;10.97;80.72
5954;BME280;3002;42.642;24.812;2023-04-02T03:01:54;95406.19;;;11.13;79.29
5954;BME280;3002;42.642;24.812;2023-04-02T03:04:22;95424.00;;;11.35;80.68
5954;BME280;3002;42.642;24.812;2023-04-02T03:06:52;95441.69;;;11.19;82.93
5954;BME280;3002;42.642;24.812;2023-04-02T03:12:46;95443.09;;;10.99;84.57
5954;BME280;3002;42.642;24.812;2023-04-02T03:15:22;95448.22;;;10.52;90.12
5954;BME280;3002;42.642;24.812;2023-04-02T03:23:52;95461.88;;;10.33;90.21
5954;BME280;3002;42.642;24.812;2023-04-02T03:27:00;95464.91;;;10.49;90.97
5954;BME280;3002;42.642;24.812;2023-04-02T03:31:56;95437.09;;;10.28;92.22
5954;BME280;3002;42.642;24.812;2023-04-02T03:37:28;95473.75;;;10.50;92.82
5954;BME280;3002;42.642;24.812;2023-04-02T03:40:00;95483.56;;;10.63;92.61
5954;BME280;3002;42.642;24.812;2023-04-02T03:42:38;95447.28;;;10.57;92.34
5954;BME280;3002;42.642;24.812;2023-04-02T03:45:13;95484.41;;;10.89;91.76
5954;BME280;3002;42.642;24.812;2023-04-02T03:47:47;95487.38;;;10.70;90.99
5954;BME280;3002;42.642;24.812;2023-04-02T03:50:32;95480.44;;;10.69;90.45
5954;BME280;3002;42.642;24.812;2023-04-02T03:52:59;95456.72;;;10.54;89.99
5954;BME280;3002;42.642;24.812;2023-04-02T03:55:29;95483.31;;;10.82;91.42
5954;BME280;3002;42.642;24.812;2023-04-02T03:58:16;95486.19;;;11.11;88.24
5954;BME280;3002;42.642;24.812;2023-04-02T04:00:49;95478.91;;;11.03;89.36
5954;BME280;3002;42.642;24.812;2023-04-02T04:03:28;95477.50;;;11.14;88.87
5954;BME280;3002;42.642;24.812;2023-04-02T04:06:19;95480.34;;;11.26;85.46
5954;BME280;3002;42.642;24.812;2023-04-02T04:08:50;95472.78;;;11.20;85.44
5954;BME280;3002;42.642;24.812;2023-04-02T04:11:43;95476.41;;;11.33;85.64
5954;BME280;3002;42.642;24.812;2023-04-02T04:14:13;95428.41;;;10.88;87.51
5954;BME280;3002;42.642;24.812;2023-04-02T04:16:54;95440.72;;;10.89;89.45
5954;BME280;3002;42.642;24.812;2023-04-02T04:19:46;95469.31;;;11.19;88.72
5954;BME280;3002;42.642;24.812;2023-04-02T04:22:26;95500.56;;;11.24;88.95
5954;BME280;3002;42.642;24.812;2023-04-02T04:24:59;95481.38;;;10.65;93.04
5954;BME280;3002;42.642;24.812;2023-04-02T04:30:57;95489.69;;;10.55;94.66
5954;BME280;3002;42.642;24.812;2023-04-02T04:33:30;95462.31;;;10.75;89.92
5954;BME280;3002;42.642;24.812;2023-04-02T04:36:05;95498.03;;;10.44;89.88
5954;BME280;3002;42.642;24.812;2023-04-02T04:38:39;95504.38;;;10.57;93.22
5954;BME280;3002;42.642;24.812;2023-04-02T04:41:30;95496.41;;;10.83;89.17
5954;BME280;3002;42.642;24.812;2023-04-02T04:44:09;95499.25;;;10.95;86.07
5954;BME280;3002;42.642;24.812;2023-04-02T04:47:07;95506.25;;;11.14;83.51
5954;BME280;3002;42.642;24.812;2023-04-02T04:49:42;95487.28;;;11.02;83.33
5954;BME280;3002;42.642;24.812;2023-04-02T04:52:36;95495.19;;;11.33;81.51
5954;BME280;3002;42.642;24.812;2023-04-02T04:55:20;95479.72;;;11.56;77.29
5954;BME280;3002;42.642;24.812;2023-04-02T04:57:47;95479.56;;;11.09;80.57
5954;BME280;3002;42.642;24.812;2023-04-02T05:02:50;95515.09;;;12.10;77.75
5954;BME280;3002;42.642;24.812;2023-04-02T05:05:24;95497.53;;;12.12;74.65
5954;BME280;3002;42.642;24.812;2023-04-02T05:08:21;95515.13;;;11.84;76.25
5954;BME280;3002;42.642;24.812;2023-04-02T05:10:54;95527.09;;;12.59;71.62
5954;BME280;3002;42.642;24.812;2023-04-02T05:13:32;95527.28;;;11.90;77.13
5954;BME280;3002;42.642;24.812;2023-04-02T05:21:49;95528.22;;;11.59;78.40
5954;BME280;3002;42.642;24.812;2023-04-02T05:24:41;95520.47;;;11.75;76.96
5954;BME280;3002;42.642;24.812;2023-04-02T05:27:35;95501.44;;;12.23;72.64
5954;BME280;3002;42.642;24.812;2023-04-02T05:30:27;95532.81;;;11.85;75.94
5954;BME280;3002;42.642;24.812;2023-04-02T05:33:02;95539.88;;;13.38;69.98
5954;BME280;3002;42.642;24.812;2023-04-02T05:35:36;95504.53;;;12.51;67.91
5954;BME280;3002;42.642;24.812;2023-04-02T05:38:05;95538.22;;;14.21;63.22
5954;BME280;3002;42.642;24.812;2023-04-02T05:40:41;95523.59;;;14.55;61.22
5954;BME280;3002;42.642;24.812;2023-04-02T05:43:09;95547.16;;;14.91;60.90
5954;BME280;3002;42.642;24.812;2023-04-02T05:45:36;95537.25;;;15.08;60.59
5954;BME280;3002;42.642;24.812;2023-04-02T05:48:19;95527.81;;;15.78;57.15
5954;BME280;3002;42.642;24.812;2023-04-02T05:50:53;95509.44;;;16.72;53.13
5954;BME280;3002;42.642;24.812;2023-04-02T05:53:33;95529.19;;;17.74;51.09
5954;BME280;3002;42.642;24.812;2023-04-02T06:01:03;95539.25;;;17.38;50.11
5954;BME280;3002;42.642;24.812;2023-04-02T06:06:23;95527.03;;;16.50;52.82
5954;BME280;3002;42.642;24.812;2023-04-02T06:08:58;95561.00;;;15.91;53.15
5954;BME280;3002;42.642;24.812;2023-04-02T06:11:37;95528.88;;;16.46;53.02
5954;BME280;3002;42.642;24.812;2023-04-02T06:14:11;95532.69;;;18.33;47.27
5954;BME280;3002;42.642;24.812;2023-04-02T06:16:36;95546.63;;;17.73;47.96
5954;BME280;3002;42.642;24.812;2023-04-02T06:19:07;95550.81;;;17.71;48.23
5954;BME280;3002;42.642;24.812;2023-04-02T06:21:45;95527.06;;;18.03;48.38
5954;BME280;3002;42.642;24.812;2023-04-02T06:24:17;95555.09;;;19.41;45.56
5954;BME280;3002;42.642;24.812;2023-04-02T06:27:11;95566.00;;;17.40;48.47
5954;BME280;3002;42.642;24.812;2023-04-02T06:29:41;95572.59;;;16.92;49.22
5954;BME280;3002;42.642;24.812;2023-04-02T06:32:10;95542.19;;;17.84;49.45
5954;BME280;3002;42.642;24.812;2023-04-02T06:34:40;95546.09;;;18.45;46.44
5954;BME280;3002;42.642;24.812;2023-04-02T06:39:41;95579.91;;;18.28;47.16
5954;BME280;3002;42.642;24.812;2023-04-02T06:42:13;95591.72;;;17.15;49.13
5954;BME280;3002;42.642;24.812;2023-04-02T06:44:41;95572.09;;;15.62;53.35
5954;BME280;3002;42.642;24.812;2023-04-02T06:49:59;95577.22;;;16.75;51.16
5954;BME280;3002;42.642;24.812;2023-04-02T06:52:39;95554.22;;;17.67;48.38
5954;BME280;3002;42.642;24.812;2023-04-02T06:57:42;95578.78;;;17.39;49.75
5954;BME280;3002;42.642;24.812;2023-04-02T07:02:46;95588.66;;;19.75;44.05
5954;BME280;3002;42.642;24.812;2023-04-02T07:05:14;95577.56;;;19.91;42.92
5954;BME280;3002;42.642;24.812;2023-04-02T07:07:39;95569.78;;;21.89;39.42
5954;BME280;3002;42.642;24.812;2023-04-02T07:10:05;95563.50;;;23.80;36.87
5954;BME280;3002;42.642;24.812;2023-04-02T07:12:33;95569.34;;;23.99;36.00
5954;BME280;3002;42.642;24.812;2023-04-02T07:14:58;95558.06;;;23.76;36.42
5954;BME280;3002;42.642;24.812;2023-04-02T07:17:24;95562.94;;;22.24;40.15
5954;BME280;3002;42.642;24.812;2023-04-02T07:19:49;95575.69;;;23.39;37.17
5954;BME280;3002;42.642;24.812;2023-04-02T07:22:18;95607.69;;;23.96;36.19
5954;BME280;3002;42.642;24.812;2023-04-02T07:24:45;95596.91;;;22.30;38.56
5954;BME280;3002;42.642;24.812;2023-04-02T07:27:11;95600.31;;;23.64;37.13
5954;BME280;3002;42.642;24.812;2023-04-02T07:29:38;95594.69;;;24.25;35.10
5954;BME280;3002;42.642;24.812;2023-04-02T07:32:10;95568.22;;;23.33;37.32
5954;BME280;3002;42.642;24.812;2023-04-02T07:34:37;95582.66;;;24.01;36.09
5954;BME280;3002;42.642;24.812;2023-04-02T07:37:03;95612.22;;;22.56;37.60
5954;BME280;3002;42.642;24.812;2023-04-02T07:39:29;95592.13;;;21.47;39.87
5954;BME280;3002;42.642;24.812;2023-04-02T07:41:59;95625.78;;;21.25;40.95
5954;BME280;3002;42.642;24.812;2023-04-02T07:44:26;95631.25;;;20.84;40.47
5954;BME280;3002;42.642;24.812;2023-04-02T07:46:51;95584.63;;;21.96;38.78
5954;BME280;3002;42.642;24.812;2023-04-02T07:49:17;95578.41;;;23.04;37.07
5954;BME280;3002;42.642;24.812;2023-04-02T07:51:42;95620.75;;;22.40;36.47
5954;BME280;3002;42.642;24.812;2023-04-02T07:54:08;95597.91;;;24.02;34.96
5954;BME280;3002;42.642;24.812;2023-04-02T07:56:35;95621.78;;;23.41;35.19
5954;BME280;3002;42.642;24.812;2023-04-02T07:59:01;95609.09;;;22.54;38.03
5954;BME280;3002;42.642;24.812;2023-04-02T08:01:27;95603.81;;;23.36;35.33
5954;BME280;3002;42.642;24.812;2023-04-02T08:03:55;95625.19;;;21.01;40.45
5954;BME280;3002;42.642;24.812;2023-04-02T08:06:22;95628.41;;;20.10;41.35
5954;BME280;3002;42.642;24.812;2023-04-02T08:08:47;95587.13;;;20.71;40.83
5954;BME280;3002;42.642;24.812;2023-04-02T08:11:13;95587.75;;;22.92;37.56
5954;BME280;3002;42.642;24.812;2023-04-02T08:13:39;95624.63;;;21.70;39.16
5954;BME280;3002;42.642;24.812;2023-04-02T08:16:05;95615.19;;;23.63;35.62
5954;BME280;3002;42.642;24.812;2023-04-02T08:18:31;95566.19;;;24.89;33.50
5954;BME280;3002;42.642;24.812;2023-04-02T08:20:57;95603.63;;;24.50;33.46
5954;BME280;3002;42.642;24.812;2023-04-02T08:23:23;95592.13;;;22.09;37.15
5954;BME280;3002;42.642;24.812;2023-04-02T08:25:49;95607.41;;;21.62;38.57
5954;BME280;3002;42.642;24.812;2023-04-02T08:28:15;95610.16;;;25.44;33.46
5954;BME280;3002;42.642;24.812;2023-04-02T08:30:41;95597.16;;;27.23;31.08
5954;BME280;3002;42.642;24.812;2023-04-02T08:33:06;95614.13;;;27.71;30.57
5954;BME280;3002;42.642;24.812;2023-04-02T08:35:32;95586.41;;;27.32;30.41
5954;BME280;3002;42.642;24.812;2023-04-02T08:37:58;95594.44;;;23.76;34.16
5954;BME280;3002;42.642;24.812;2023-04-02T08:40:28;95603.47;;;25.90;32.37
5954;BME280;3002;42.642;24.812;2023-04-02T08:48:32;95607.41;;;25.93;31.77
5954;BME280;3002;42.642;24.812;2023-04-02T08:51:00;95586.34;;;26.81;30.66
5954;BME280;3002;42.642;24.812;2023-04-02T08:53:33;95616.66;;;23.00;34.61
5954;BME280;3002;42.642;24.812;2023-04-02T08:56:21;95606.16;;;23.59;34.35
5954;BME280;3002;42.642;24.812;2023-04-02T08:58:56;95609.97;;;25.14;31.81
5954;BME280;3002;42.642;24.812;2023-04-02T09:03:58;95621.69;;;27.64;28.65
5954;BME280;3002;42.642;24.812;2023-04-02T09:06:24;95593.06;;;29.04;27.94
5954;BME280;3002;42.642;24.812;2023-04-02T09:08:51;95602.19;;;29.70;26.72
5954;BME280;3002;42.642;24.812;2023-04-02T09:11:24;95614.88;;;29.83;27.01
5954;BME280;3002;42.642;24.812;2023-04-02T09:13:56;95597.81;;;29.20;27.13
5954;BME280;3002;42.642;24.812;2023-04-02T09:16:39;95611.69;;;27.50;28.96
5954;BME280;3002;42.642;24.812;2023-04-02T09:19:21;95607.56;;;25.75;30.20
5954;BME280;3002;42.642;24.812;2023-04-02T09:21:59;95572.56;;;28.06;27.09
5954;BME280;3002;42.642;24.812;2023-04-02T09:24:28;95586.59;;;28.91;26.24
5954;BME280;3002;42.642;24.812;2023-04-02T09:26:53;95605.00;;;29.33;26.88
5954;BME280;3002;42.642;24.812;2023-04-02T09:32:12;95590.31;;;28.24;26.59
5954;BME280;3002;42.642;24.812;2023-04-02T09:34:43;95572.31;;;27.53;27.03
5954;BME280;3002;42.642;24.812;2023-04-02T09:37:20;95596.06;;;28.14;25.39
5954;BME280;3002;42.642;24.812;2023-04-02T09:39:47;95580.41;;;28.50;25.42
5954;BME280;3002;42.642;24.812;2023-04-02T09:42:34;95598.47;;;28.71;25.07
5954;BME280;3002;42.642;24.812;2023-04-02T09:45:13;95589.38;;;29.27;23.63
5954;BME280;3002;42.642;24.812;2023-04-02T09:47:39;95543.88;;;28.43;23.59
5954;BME280;3002;42.642;24.812;2023-04-02T09:52:46;95574.97;;;26.79;24.33
5954;BME280;3002;42.642;24.812;2023-04-02T09:55:21;95561.97;;;26.53;24.71
5954;BME280;3002;42.642;24.812;2023-04-02T09:57:49;95574.19;;;27.33;24.18
5954;BME280;3002;42.642;24.812;2023-04-02T10:00:25;95576.09;;;26.55;25.45
5954;BME280;3002;42.642;24.812;2023-04-02T10:05:45;95565.41;;;28.88;22.91
5954;BME280;3002;42.642;24.812;2023-04-02T10:08:19;95572.38;;;29.12;23.70
5954;BME280;3002;42.642;24.812;2023-04-02T10:10:48;95552.88;;;28.83;23.63
5954;BME280;3002;42.642;24.812;2023-04-02T10:13:28;95552.44;;;28.68;23.97
5954;BME280;3002;42.642;24.812;2023-04-02T10:16:14;95538.59;;;27.69;24.80
5954;BME280;3002;42.642;24.812;2023-04-02T10:18:48;95560.47;;;27.80;24.36
5954;BME280;3002;42.642;24.812;2023-04-02T10:21:18;95566.91;;;25.55;26.70
5954;BME280;3002;42.642;24.812;2023-04-02T10:23:46;95543.94;;;26.52;25.14
5954;BME280;3002;42.642;24.812;2023-04-02T10:38:23;95573.66;;;23.86;29.01
5954;BME280;3002;42.642;24.812;2023-04-02T10:40:50;95549.38;;;24.90;27.21
5954;BME280;3002;42.642;24.812;2023-04-02T10:46:20;95558.72;;;26.61;25.39
5954;BME280;3002;42.642;24.812;2023-04-02T10:51:42;95555.97;;;26.61;24.59
5954;BME280;3002;42.642;24.812;2023-04-02T10:54:31;95550.56;;;25.86;25.37
5954;BME280;3002;42.642;24.812;2023-04-02T11:00:02;95546.19;;;28.24;24.79
5954;BME280;3002;42.642;24.812;2023-04-02T11:05:35;95559.25;;;29.16;23.11
5954;BME280;3002;42.642;24.812;2023-04-02T11:08:28;95547.25;;;29.06;22.67
5954;BME280;3002;42.642;24.812;2023-04-02T11:11:04;95551.13;;;28.93;22.54
5954;BME280;3002;42.642;24.812;2023-04-02T11:16:18;95545.91;;;27.05;24.69
5954;BME280;3002;42.642;24.812;2023-04-02T11:19:08;95536.22;;;27.71;24.40
5954;BME280;3002;42.642;24.812;2023-04-02T11:21:38;95538.66;;;27.42;23.89
5954;BME280;3002;42.642;24.812;2023-04-02T11:24:22;95545.09;;;29.14;22.86
5954;BME280;3002;42.642;24.812;2023-04-02T11:26:48;95543.75;;;26.62;25.53
5954;BME280;3002;42.642;24.812;2023-04-02T11:31:50;95527.75;;;29.63;22.49
5954;BME280;3002;42.642;24.812;2023-04-02T11:37:36;95517.16;;;29.12;22.41
5954;BME280;3002;42.642;24.812;2023-04-02T11:48:43;95519.19;;;30.31;20.96
5954;BME280;3002;42.642;24.812;2023-04-02T11:53:55;95503.31;;;30.61;21.10
5954;BME280;3002;42.642;24.812;2023-04-02T11:59:21;95508.00;;;27.40;22.84
5954;BME280;3002;42.642;24.812;2023-04-02T12:07:09;95507.63;;;28.80;22.02
5954;BME280;3002;42.642;24.812;2023-04-02T12:09:48;95497.06;;;27.36;23.93
5954;BME280;3002;42.642;24.812;2023-04-02T12:12:24;95492.22;;;27.20;23.52
5954;BME280;3002;42.642;24.812;2023-04-02T12:15:00;95502.00;;;27.68;22.70
5954;BME280;3002;42.642;24.812;2023-04-02T12:17:30;95508.91;;;28.40;22.23
5954;BME280;3002;42.642;24.812;2023-04-02T12:19:59;95468.75;;;29.98;20.60
5954;BME280;3002;42.642;24.812;2023-04-02T12:22:30;95477.31;;;30.97;20.92
5954;BME280;3002;42.642;24.812;2023-04-02T12:24:59;95480.16;;;32.01;20.19
5954;BME280;3002;42.642;24.812;2023-04-02T12:27:27;95503.75;;;31.23;19.62
5954;BME280;3002;42.642;24.812;2023-04-02T12:29:55;95478.44;;;32.16;19.47
5954;BME280;3002;42.642;24.812;2023-04-02T12:32:34;95466.69;;;31.08;20.62
5954;BME280;3002;42.642;24.812;2023-04-02T12:35:00;95467.19;;;29.97;20.57
5954;BME280;3002;42.642;24.812;2023-04-02T12:37:28;95497.72;;;30.77;21.11
5954;BME280;3002;42.642;24.812;2023-04-02T12:40:02;95484.28;;;31.27;19.73
5954;BME280;3002;42.642;24.812;2023-04-02T12:42:36;95493.19;;;31.56;20.05
5954;BME280;3002;42.642;24.812;2023-04-02T12:45:03;95476.09;;;31.92;19.52
5954;BME280;3002;42.642;24.812;2023-04-02T12:47:31;95495.97;;;31.78;20.28
5954;BME280;3002;42.642;24.812;2023-04-02T12:49:58;95491.16;;;31.09;20.51
5954;BME280;3002;42.642;24.812;2023-04-02T12:52:26;95481.28;;;31.21;20.19
5954;BME280;3002;42.642;24.812;2023-04-02T12:55:03;95462.91;;;29.67;20.14
5954;BME280;3002;42.642;24.812;2023-04-02T12:57:34;95471.72;;;29.46;20.70
5954;BME280;3002;42.642;24.812;2023-04-02T13:02:49;95498.44;;;30.10;20.97
5954;BME280;3002;42.642;24.812;2023-04-02T13:07:57;95482.84;;;30.97;20.20
5954;BME280;3002;42.642;24.812;2023-04-02T13:10:25;95462.25;;;29.30;21.96
5954;BME280;3002;42.642;24.812;2023-04-02T13:12:59;95463.34;;;30.07;21.09
5954;BME280;3002;42.642;24.812;2023-04-02T13:15:30;95451.06;;;30.76;20.39
5954;BME280;3002;42.642;24.812;2023-04-02T13:18:06;95445.38;;;29.86;20.82
5954;BME280;3002;42.642;24.812;2023-04-02T13:20:34;95454.59;;;30.51;19.95
5954;BME280;3002;42.642;24.812;2023-04-02T13:25:48;95467.75;;;31.10;20.35
5954;BME280;3002;42.642;24.812;2023-04-02T13:28:14;95479.56;;;31.49;20.07
5954;BME280;3002;42.642;24.812;2023-04-02T13:30:40;95471.06;;;31.43;20.79
5954;BME280;3002;42.642;24.812;2023-04-02T13:33:14;95478.13;;;28.41;22.19
5954;BME280;3002;42.642;24.812;2023-04-02T13:35:41;95485.50;;;29.17;22.14
5954;BME280;3002;42.642;24.812;2023-04-02T13:38:07;95486.75;;;29.61;20.29
5954;BME280;3002;42.642;24.812;2023-04-02T13:40:34;95489.28;;;30.68;19.99
5954;BME280;3002;42.642;24.812;2023-04-02T13:43:01;95479.66;;;29.44;21.25
5954;BME280;3002;42.642;24.812;2023-04-02T13:45:32;95483.84;;;29.52;21.02
5954;BME280;3002;42.642;24.812;2023-04-02T13:47:58;95453.47;;;28.34;22.16
5954;BME280;3002;42.642;24.812;2023-04-02T13:50:30;95461.97;;;28.04;22.28
5954;BME280;3002;42.642;24.812;2023-04-02T13:52:57;95439.31;;;28.68;22.58
5954;BME280;3002;42.642;24.812;2023-04-02T13:55:25;95447.84;;;28.74;22.34
5954;BME280;3002;42.642;24.812;2023-04-02T13:57:53;95476.34;;;26.51;23.33
5954;BME280;3002;42.642;24.812;2023-04-02T14:00:19;95487.09;;;26.11;23.70
5954;BME280;3002;42.642;24.812;2023-04-02T14:02:56;95483.78;;;27.08;24.03
5954;BME280;3002;42.642;24.812;2023-04-02T14:05:41;95481.34;;;25.98;23.99
5954;BME280;3002;42.642;24.812;2023-04-02T14:14:26;95480.38;;;25.81;24.65
5954;BME280;3002;42.642;24.812;2023-04-02T14:25:46;95479.31;;;24.12;26.76
5954;BME280;3002;42.642;24.812;2023-04-02T14:31:03;95478.38;;;22.88;27.94
5954;BME280;3002;42.642;24.812;2023-04-02T14:41:57;95483.75;;;23.74;27.92
5954;BME280;3002;42.642;24.812;2023-04-02T14:44:27;95466.22;;;23.32;28.32
5954;BME280;3002;42.642;24.812;2023-04-02T14:47:26;95481.50;;;23.12;28.56
5954;BME280;3002;42.642;24.812;2023-04-02T14:49:54;95486.91;;;23.55;28.60
5954;BME280;3002;42.642;24.812;2023-04-02T14:52:22;95456.13;;;23.01;28.52
5954;BME280;3002;42.642;24.812;2023-04-02T14:54:53;95478.00;;;24.38;27.65
5954;BME280;3002;42.642;24.812;2023-04-02T15:00:21;95478.00;;;24.38;28.10
5954;BME280;3002;42.642;24.812;2023-04-02T15:03:04;95480.56;;;23.86;27.74
5954;BME280;3002;42.642;24.812;2023-04-02T15:08:14;95477.47;;;24.61;27.32
5954;BME280;3002;42.642;24.812;2023-04-02T15:10:52;95469.78;;;24.38;26.88
5954;BME280;3002;42.642;24.812;2023-04-02T15:13:24;95479.75;;;24.00;27.08
5954;BME280;3002;42.642;24.812;2023-04-02T15:15:54;95474.47;;;23.18;27.58
5954;BME280;3002;42.642;24.812;2023-04-02T15:18:21;95486.16;;;23.36;28.50
5954;BME280;3002;42.642;24.812;2023-04-02T15:20:56;95486.59;;;23.06;28.66
5954;BME280;3002;42.642;24.812;2023-04-02T15:23:39;95477.56;;;22.56;28.41
5954;BME280;3002;42.642;24.812;2023-04-02T15:31:26;95453.69;;;22.24;29.31
5954;BME280;3002;42.642;24.812;2023-04-02T15:39:37;95497.78;;;22.26;30.99
5954;BME280;3002;42.642;24.812;2023-04-02T15:42:38;95490.13;;;21.66;31.96
5954;BME280;3002;42.642;24.812;2023-04-02T15:45:28;95486.88;;;21.43;33.37
5954;BME280;3002;42.642;24.812;2023-04-02T15:50:50;95484.47;;;21.30;33.07
5954;BME280;3002;42.642;24.812;2023-04-02T15:53:38;95496.94;;;21.35;33.51
5954;BME280;3002;42.642;24.812;2023-04-02T15:56:25;95505.19;;;21.42;33.57
5954;BME280;3002;42.642;24.812;2023-04-02T15:58:58;95515.25;;;21.31;33.88
5954;BME280;3002;42.642;24.812;2023-04-02T16:10:18;95518.72;;;20.83;33.72
5954;BME280;3002;42.642;24.812;2023-04-02T16:12:49;95507.28;;;20.67;34.15
5954;BME280;3002;42.642;24.812;2023-04-02T16:15:20;95484.03;;;20.80;33.95
5954;BME280;3002;42.642;24.812;2023-04-02T16:18:02;95478.44;;;20.63;34.55
5954;BME280;3002;42.642;24.812;2023-04-02T16:20:49;95518.50;;;21.03;33.85
5954;BME280;3002;42.642;24.812;2023-04-02T16:23:19;95490.94;;;20.30;34.83
5954;BME280;3002;42.642;24.812;2023-04-02T16:28:47;95504.00;;;20.51;35.09
5954;BME280;3002;42.642;24.812;2023-04-02T16:34:48;95526.22;;;20.19;35.41
5954;BME280;3002;42.642;24.812;2023-04-02T16:37:37;95539.22;;;19.99;35.94
5954;BME280;3002;42.642;24.812;2023-04-02T16:44:01;95524.31;;;19.90;36.47
5954;BME280;3002;42.642;24.812;2023-04-02T16:52:57;95544.22;;;19.41;37.10
5954;BME280;3002;42.642;24.812;2023-04-02T17:01:20;95528.88;;;19.03;37.51
5954;BME280;3002;42.642;24.812;2023-04-02T17:04:08;95512.09;;;18.97;37.41
5954;BME280;3002;42.642;24.812;2023-04-02T17:06:39;95554.84;;;19.00;38.06
5954;BME280;3002;42.642;24.812;2023-04-02T17:09:31;95567.66;;;18.99;37.92
5954;BME280;3002;42.642;24.812;2023-04-02T17:12:25;95562.28;;;18.61;38.57
5954;BME280;3002;42.642;24.812;2023-04-02T17:14:59;95561.38;;;18.73;38.51
5954;BME280;3002;42.642;24.812;2023-04-02T17:17:29;95550.34;;;18.65;38.44
5954;BME280;3002;42.642;24.812;2023-04-02T17:19:56;95570.81;;;18.59;38.82
5954;BME280;3002;42.642;24.812;2023-04-02T17:22:23;95557.75;;;18.45;39.34
5954;BME280;3002;42.642;24.812;2023-04-02T17:25:03;95578.31;;;18.66;38.97
5954;BME280;3002;42.642;24.812;2023-04-02T17:27:34;95569.03;;;18.48;39.40
5954;BME280;3002;42.642;24.812;2023-04-02T17:30:15;95540.41;;;17.92;40.06
5954;BME280;3002;42.642;24.812;2023-04-02T17:32:43;95593.25;;;18.37;39.47
5954;BME280;3002;42.642;24.812;2023-04-02T17:35:29;95593.53;;;18.32;39.83